createdAt,value
2022-11-26T00:01:53.814Z,102072.56
2022-11-26T00:04:56.866Z,102072.66
2022-11-26T00:08:00.499Z,102080.63
2022-11-26T00:11:02.941Z,102081.59
2022-11-26T00:14:12.197Z,102089.59
2022-11-26T00:17:14.956Z,102095.88
2022-11-26T00:20:17.400Z,102087.09
2022-11-26T00:23:24.850Z,102092.50
2022-11-26T00:26:27.280Z,102088.16
2022-11-26T00:29:28.905Z,102094.41
2022-11-26T00:32:30.605Z,102100.69
2022-11-26T00:35:32.218Z,102101.66
2022-11-26T00:38:33.788Z,102102.59
2022-11-26T00:41:38.711Z,102092.16
2022-11-26T00:44:40.664Z,102111.56
2022-11-26T00:47:42.278Z,102117.81
2022-11-26T00:50:47.776Z,102115.28
2022-11-26T00:53:50.739Z,102117.19
2022-11-26T00:56:52.570Z,102122.50
2022-11-26T00:59:54.108Z,102127.00
2022-11-26T01:02:56.385Z,102135.91
2022-11-26T01:05:59.012Z,102128.03
2022-11-26T01:09:00.781Z,102137.72
2022-11-26T01:12:02.344Z,102137.81
2022-11-26T01:15:04.272Z,102148.41
2022-11-26T01:18:18.793Z,102157.31
2022-11-26T01:21:21.640Z,102160.97
2022-11-26T01:24:23.146Z,102160.13
2022-11-26T01:27:24.693Z,102161.97
2022-11-26T01:30:30.759Z,102166.41
2022-11-26T01:33:32.321Z,102167.34
2022-11-26T01:36:39.264Z,102170.09
2022-11-26T01:39:41.285Z,102171.97
2022-11-26T01:42:46.858Z,102172.09
2022-11-26T01:45:48.463Z,102181.88
2022-11-26T01:48:50.707Z,102187.25
2022-11-26T01:51:54.932Z,102193.50
2022-11-26T01:54:56.508Z,102197.03
2022-11-26T01:57:58.200Z,102188.31
2022-11-26T02:01:00.755Z,102191.00
2022-11-26T02:04:05.061Z,102198.94
2022-11-26T02:07:06.673Z,102195.47
2022-11-26T02:10:09.656Z,102206.91
2022-11-26T02:13:11.460Z,102211.31
2022-11-26T02:16:33.752Z,102214.84
2022-11-26T02:19:55.235Z,102211.38
2022-11-26T02:23:02.480Z,102204.38
2022-11-26T02:26:16.235Z,102214.97
2022-11-26T02:29:26.179Z,102221.19
2022-11-26T02:32:40.295Z,102222.97
2022-11-26T02:35:47.726Z,102233.56
2022-11-26T02:38:50.345Z,102236.22
2022-11-26T02:41:55.303Z,102240.66
2022-11-26T02:45:07.756Z,102242.41
2022-11-26T02:48:14.978Z,102239.78
2022-11-26T02:51:23.056Z,102238.03
2022-11-26T02:54:26.503Z,102241.59
2022-11-26T02:57:32.790Z,102252.13
2022-11-26T03:00:38.059Z,102255.69
2022-11-26T03:03:46.631Z,102253.94
2022-11-26T03:06:49.020Z,102248.72
2022-11-26T03:09:50.477Z,102250.47
2022-11-26T03:12:52.010Z,102260.19
2022-11-26T03:15:53.583Z,102255.78
2022-11-26T03:18:55.159Z,102260.22
2022-11-26T03:21:56.724Z,102267.31
2022-11-26T03:24:58.290Z,102261.16
2022-11-26T03:27:59.896Z,102261.16
2022-11-26T03:31:01.507Z,102261.19
2022-11-26T03:34:03.067Z,102250.69
2022-11-26T03:37:04.621Z,102257.78
2022-11-26T03:40:07.460Z,102259.56
2022-11-26T03:43:09.040Z,102267.50
2022-11-26T03:46:10.736Z,102267.53
2022-11-26T03:49:12.307Z,102266.66
2022-11-26T03:52:13.981Z,102264.00
2022-11-26T03:55:15.663Z,102265.75
2022-11-26T03:58:17.431Z,102261.38
2022-11-26T04:01:19.138Z,102262.28
2022-11-26T04:04:20.675Z,102264.97
2022-11-26T04:07:22.239Z,102266.78
2022-11-26T04:10:24.157Z,102272.13
2022-11-26T04:13:25.718Z,102267.81
2022-11-26T04:16:27.375Z,102276.63
2022-11-26T04:19:29.035Z,102281.91
2022-11-26T04:22:30.638Z,102283.75
2022-11-26T04:25:32.291Z,102289.06
2022-11-26T04:28:33.999Z,102288.25
2022-11-26T04:31:35.629Z,102291.81
2022-11-26T04:34:37.642Z,102301.53
2022-11-26T04:37:39.371Z,102308.56
2022-11-26T04:40:40.963Z,102310.41
2022-11-26T04:43:42.496Z,102322.72
2022-11-26T04:46:44.024Z,102317.50
2022-11-26T04:49:45.584Z,102320.13
2022-11-26T04:52:50.843Z,102329.78
2022-11-26T04:55:53.420Z,102336.81
2022-11-26T04:58:54.931Z,102335.09
2022-11-26T05:01:56.606Z,102328.94
2022-11-26T05:04:58.142Z,102336.81
2022-11-26T05:07:59.714Z,102341.16
2022-11-26T05:11:03.089Z,102339.41
2022-11-26T05:14:04.687Z,102343.81
2022-11-26T05:17:06.348Z,102355.25
2022-11-26T05:20:08.580Z,102354.34
2022-11-26T05:23:10.221Z,102349.06
2022-11-26T05:26:12.050Z,102353.44
2022-11-26T05:29:13.675Z,102348.13
2022-11-26T05:32:15.254Z,102354.22
2022-11-26T05:35:16.979Z,102355.09
2022-11-26T05:38:18.580Z,102357.78
2022-11-26T05:41:20.134Z,102358.63
2022-11-26T05:44:21.679Z,102356.88
2022-11-26T05:47:23.267Z,102360.97
2022-11-26T05:50:24.900Z,102369.75
2022-11-26T05:53:26.583Z,102382.06
2022-11-26T05:56:28.144Z,102385.59
2022-11-26T05:59:29.848Z,102387.38
2022-11-26T06:02:31.516Z,102389.16
2022-11-26T06:05:33.074Z,102383.06
2022-11-26T06:08:35.333Z,102387.50
2022-11-26T06:11:36.935Z,102396.31
2022-11-26T06:14:42.953Z,102399.88
2022-11-26T06:17:45.092Z,102402.50
2022-11-26T06:20:46.666Z,102397.25
2022-11-26T06:23:55.961Z,102407.75
2022-11-26T06:27:00.596Z,102414.78
2022-11-26T06:30:04.710Z,102408.66
2022-11-26T06:33:06.312Z,102415.63
2022-11-26T06:36:07.902Z,102418.28
2022-11-26T06:39:10.452Z,102427.91
2022-11-26T06:42:12.019Z,102426.97
2022-11-26T06:45:13.513Z,102431.31
2022-11-26T06:48:15.048Z,102431.28
2022-11-26T06:51:17.365Z,102427.72
2022-11-26T06:54:18.925Z,102429.34
2022-11-26T06:57:20.449Z,102437.19
2022-11-26T07:00:22.617Z,102443.25
2022-11-26T07:03:28.032Z,102443.22
2022-11-26T07:06:33.188Z,102437.03
2022-11-26T07:09:34.851Z,102444.91
2022-11-26T07:12:36.363Z,102445.69
2022-11-26T07:15:38.119Z,102443.06
2022-11-26T07:18:40.206Z,102455.38
2022-11-26T07:21:41.984Z,102455.41
2022-11-26T07:24:43.682Z,102459.84
2022-11-26T07:27:45.593Z,102464.31
2022-11-26T07:30:47.211Z,102466.94
2022-11-26T07:33:49.653Z,102471.38
2022-11-26T07:36:56.662Z,102471.38
2022-11-26T07:39:59.481Z,102474.88
2022-11-26T07:43:01.121Z,102474.03
2022-11-26T07:46:03.849Z,102468.78
2022-11-26T07:49:05.402Z,102476.69
2022-11-26T07:52:07.225Z,102479.31
2022-11-26T07:55:12.485Z,102479.31
2022-11-26T07:58:15.377Z,102485.44
2022-11-26T08:01:20.419Z,102485.41
2022-11-26T08:04:22.024Z,102491.56
2022-11-26T08:07:28.980Z,102488.94
2022-11-26T08:10:31.134Z,102491.63
2022-11-26T08:13:32.742Z,102505.72
2022-11-26T08:16:34.813Z,102500.44
2022-11-26T08:19:36.544Z,102510.97
2022-11-26T08:22:38.111Z,102514.47
2022-11-26T08:25:59.285Z,102518.81
2022-11-26T08:29:01.436Z,102516.19
2022-11-26T08:32:03.230Z,102512.66
2022-11-26T08:35:05.383Z,102517.88
2022-11-26T08:38:07.100Z,102522.25
2022-11-26T08:41:12.130Z,102534.50
2022-11-26T08:44:13.697Z,102528.31
2022-11-26T08:47:15.261Z,102531.81
2022-11-26T08:50:17.065Z,102526.53
2022-11-26T08:53:18.683Z,102530.03
2022-11-26T08:56:20.426Z,102536.16
2022-11-26T08:59:24.283Z,102531.78
2022-11-26T09:02:26.036Z,102528.97
2022-11-26T09:05:28.041Z,102530.50
2022-11-26T09:08:29.688Z,102532.16
2022-11-26T09:11:32.564Z,102538.38
2022-11-26T09:14:40.081Z,102532.94
2022-11-26T09:17:41.808Z,102545.31
2022-11-26T09:20:43.414Z,102544.53
2022-11-26T09:23:45.069Z,102544.66
2022-11-26T09:26:48.581Z,102550.91
2022-11-26T09:29:50.136Z,102552.75
2022-11-26T09:32:51.672Z,102550.22
2022-11-26T09:35:53.271Z,102554.66
2022-11-26T09:38:59.172Z,102560.81
2022-11-26T09:42:03.473Z,102571.47
2022-11-26T09:45:14.049Z,102570.63
2022-11-26T09:48:24.690Z,102581.19
2022-11-26T09:51:27.305Z,102590.94
2022-11-26T09:54:30.299Z,102582.16
2022-11-26T09:57:49.062Z,102590.09
2022-11-26T10:00:53.078Z,102590.97
2022-11-26T10:03:54.776Z,102588.28
2022-11-26T10:07:26.177Z,102588.28
2022-11-26T10:10:45.725Z,102590.00
2022-11-26T10:14:09.890Z,102591.72
2022-11-26T10:17:14.499Z,102599.59
2022-11-26T10:20:54.761Z,102601.31
2022-11-26T10:24:04.190Z,102601.31
2022-11-26T10:27:13.202Z,102604.81
2022-11-26T10:30:22.484Z,102603.78
2022-11-26T10:33:24.528Z,102602.00
2022-11-26T10:36:39.343Z,102606.25
2022-11-26T10:39:40.881Z,102600.00
2022-11-26T10:42:47.617Z,102603.44
2022-11-26T10:45:54.703Z,102597.16
2022-11-26T10:49:16.941Z,102601.97
2022-11-26T10:52:31.290Z,102597.22
2022-11-26T10:55:41.766Z,102592.69
2022-11-26T10:58:45.288Z,102598.81
2022-11-26T11:01:51.734Z,102597.38
2022-11-26T11:05:01.236Z,102603.34
2022-11-26T11:08:02.962Z,102598.75
2022-11-26T11:11:05.136Z,102601.09
2022-11-26T11:14:28.520Z,102605.59
2022-11-26T11:17:34.966Z,102604.00
2022-11-26T11:20:38.969Z,102606.94
2022-11-26T11:24:07.183Z,102609.81
2022-11-26T11:27:02.206Z,102615.34
2022-11-26T11:30:04.226Z,102599.59
2022-11-26T11:33:21.444Z,102608.53
2022-11-26T11:36:29.339Z,102601.53
2022-11-26T11:39:33.603Z,102600.72
2022-11-26T11:42:35.356Z,102594.59
2022-11-26T11:45:52.726Z,102590.16
2022-11-26T11:49:32.212Z,102585.75
2022-11-26T11:52:52.828Z,102587.47
2022-11-26T11:56:31.165Z,102580.34
2022-11-26T12:00:10.631Z,102578.63
2022-11-26T12:03:31.103Z,102587.41
2022-11-26T12:07:06.906Z,102584.72
2022-11-26T12:10:16.827Z,102587.34
2022-11-26T12:13:23.584Z,102583.75
2022-11-26T12:16:29.149Z,102579.28
2022-11-26T12:19:36.528Z,102579.28
2022-11-26T12:22:49.518Z,102566.97
2022-11-26T12:26:26.688Z,102575.81
2022-11-26T12:29:41.860Z,102569.63
2022-11-26T12:32:51.134Z,102566.97
2022-11-26T12:35:59.441Z,102572.22
2022-11-26T12:39:03.556Z,102577.41
2022-11-26T12:42:17.650Z,102576.56
2022-11-26T12:45:33.125Z,102580.97
2022-11-26T12:48:35.060Z,102585.44
2022-11-26T12:51:44.404Z,102574.84
2022-11-26T12:55:04.190Z,102583.63
2022-11-26T12:58:12.661Z,102583.63
2022-11-26T13:01:14.433Z,102588.00
2022-11-26T13:08:07.683Z,102602.06
2022-11-26T13:11:39.539Z,102597.63
2022-11-26T13:14:50.923Z,102594.25
2022-11-26T13:17:53.228Z,102594.41
2022-11-26T13:21:03.516Z,102591.97
2022-11-26T13:24:05.741Z,102594.19
2022-11-26T13:27:37.070Z,102589.16
2022-11-26T13:30:54.405Z,102586.91
2022-11-26T13:34:15.737Z,102580.56
2022-11-26T13:37:36.399Z,102582.75
2022-11-26T13:41:21.115Z,102583.44
2022-11-26T13:44:43.710Z,102581.34
2022-11-26T13:47:58.448Z,102572.06
2022-11-26T13:51:14.207Z,102570.72
2022-11-26T13:54:32.482Z,102572.09
2022-11-26T13:57:41.549Z,102569.81
2022-11-26T14:00:43.482Z,102570.09
2022-11-26T14:03:48.571Z,102571.28
2022-11-26T14:07:05.448Z,102559.09
2022-11-26T14:10:28.818Z,102555.75
2022-11-26T14:13:30.631Z,102555.00
2022-11-26T14:17:01.088Z,102557.72
2022-11-26T14:20:04.508Z,102551.28
2022-11-26T14:23:41.499Z,102559.34
2022-11-26T14:26:43.032Z,102562.97
2022-11-26T14:29:46.477Z,102568.34
2022-11-26T14:32:52.348Z,102563.16
2022-11-26T14:35:56.575Z,102557.94
2022-11-26T14:39:11.278Z,102555.44
2022-11-26T14:42:17.587Z,102548.53
2022-11-26T14:45:21.626Z,102551.28
2022-11-26T14:48:28.762Z,102549.63
2022-11-26T14:51:32.089Z,102554.13
2022-11-26T14:54:38.558Z,102560.41
2022-11-26T14:57:48.303Z,102560.53
2022-11-26T15:01:15.013Z,102559.72
2022-11-26T15:04:44.926Z,102561.56
2022-11-26T15:07:47.693Z,102551.91
2022-11-26T15:11:05.805Z,102559.91
2022-11-26T15:14:32.867Z,102556.44
2022-11-26T15:17:35.442Z,102567.75
2022-11-26T15:20:37.013Z,102559.78
2022-11-26T15:23:39.485Z,102564.16
2022-11-26T15:26:45.308Z,102569.44
2022-11-26T15:29:49.984Z,102566.78
2022-11-26T15:33:00.795Z,102566.78
2022-11-26T15:36:03.974Z,102573.66
2022-11-26T15:39:08.043Z,102568.03
2022-11-26T15:42:26.915Z,102561.81
2022-11-26T15:45:39.245Z,102563.56
2022-11-26T15:48:52.038Z,102568.06
2022-11-26T15:52:14.923Z,102572.59
2022-11-26T15:55:26.151Z,102568.25
2022-11-26T15:58:49.206Z,102572.66
2022-11-26T16:01:50.843Z,102570.91
2022-11-26T16:04:55.962Z,102569.06
2022-11-26T16:08:04.815Z,102582.25
2022-11-26T16:11:08.797Z,102583.19
2022-11-26T16:14:31.793Z,102579.66
2022-11-26T16:17:33.440Z,102579.72
2022-11-26T16:20:35.002Z,102580.59
2022-11-26T16:23:36.840Z,102582.31
2022-11-26T16:27:01.021Z,102580.59
2022-11-26T16:30:07.587Z,102577.06
2022-11-26T16:33:09.898Z,102576.13
2022-11-26T16:36:22.483Z,102575.31
2022-11-26T16:39:27.480Z,102572.66
2022-11-26T16:42:33.081Z,102569.19
2022-11-26T16:45:34.637Z,102565.66
2022-11-26T16:48:36.247Z,102564.84
2022-11-26T16:51:37.806Z,102560.50
2022-11-26T16:54:39.713Z,102549.03
2022-11-26T16:57:46.604Z,102550.72
2022-11-26T17:00:48.488Z,102550.72
2022-11-26T17:03:50.143Z,102548.94
2022-11-26T17:06:51.785Z,102546.34
2022-11-26T17:09:53.881Z,102544.59
2022-11-26T17:12:55.890Z,102540.22
2022-11-26T17:15:57.884Z,102546.47
2022-11-26T17:18:59.522Z,102546.47
2022-11-26T17:22:01.098Z,102546.47
2022-11-26T17:25:02.711Z,102555.25
2022-11-26T17:28:10.676Z,102557.91
2022-11-26T17:31:12.306Z,102559.72
2022-11-26T17:34:13.987Z,102556.19
2022-11-26T17:37:19.658Z,102572.97
2022-11-26T17:40:22.968Z,102563.31
2022-11-26T17:43:24.506Z,102558.84
2022-11-26T17:46:26.173Z,102554.41
2022-11-26T17:49:27.894Z,102557.91
2022-11-26T17:52:29.425Z,102557.91
2022-11-26T17:55:31.469Z,102562.38
2022-11-26T17:58:33.041Z,102557.91
2022-11-26T18:01:34.779Z,102550.56
2022-11-26T18:04:36.955Z,102552.72
2022-11-26T18:07:39.510Z,102548.22
2022-11-26T18:10:41.259Z,102548.28
2022-11-26T18:13:43.050Z,102545.66
2022-11-26T18:16:45.374Z,102544.84
2022-11-26T18:19:47.491Z,102537.81
2022-11-26T18:22:58.086Z,102537.88
2022-11-26T18:25:59.641Z,102529.13
2022-11-26T18:29:04.275Z,102539.78
2022-11-26T18:32:05.959Z,102535.47
2022-11-26T18:35:08.063Z,102531.13
2022-11-26T18:38:11.451Z,102534.72
2022-11-26T18:41:13.701Z,102530.34
2022-11-26T18:44:15.335Z,102528.56
2022-11-26T18:47:16.956Z,102521.59
2022-11-26T18:50:18.859Z,102518.09
2022-11-26T18:53:20.377Z,102518.09
2022-11-26T18:56:23.180Z,102512.88
2022-11-26T18:59:24.755Z,102503.16
2022-11-26T19:02:26.344Z,102508.47
2022-11-26T19:05:27.995Z,102517.34
2022-11-26T19:08:29.528Z,102513.75
2022-11-26T19:11:32.064Z,102512.88
2022-11-26T19:14:33.587Z,102521.59
2022-11-26T19:17:35.113Z,102524.22
2022-11-26T19:20:36.648Z,102522.44
2022-11-26T19:23:38.324Z,102516.25
2022-11-26T19:26:41.448Z,102514.50
2022-11-26T19:29:43.061Z,102508.31
2022-11-26T19:32:44.764Z,102504.88
2022-11-26T19:35:46.296Z,102502.28
2022-11-26T19:38:48.234Z,102505.00
2022-11-26T19:41:49.850Z,102500.56
2022-11-26T19:44:51.400Z,102499.69
2022-11-26T19:47:53.827Z,102505.88
2022-11-26T19:50:55.762Z,102503.28
2022-11-26T19:53:57.341Z,102504.22
2022-11-26T19:56:58.850Z,102496.28
2022-11-26T20:00:00.387Z,102498.06
2022-11-26T20:03:02.079Z,102499.94
2022-11-26T20:06:13.054Z,102501.78
2022-11-26T20:09:14.866Z,102490.47
2022-11-26T20:12:16.359Z,102495.84
2022-11-26T20:15:18.151Z,102501.22
2022-11-26T20:18:19.680Z,102492.50
2022-11-26T20:21:25.783Z,102484.69
2022-11-26T20:24:27.348Z,102483.06
2022-11-26T20:27:28.910Z,102488.44
2022-11-26T20:30:31.956Z,102487.59
2022-11-26T20:33:35.156Z,102492.06
2022-11-26T20:36:37.761Z,102493.88
2022-11-26T20:39:39.626Z,102498.28
2022-11-26T20:42:45.387Z,102499.22
2022-11-26T20:45:47.726Z,102490.41
2022-11-26T20:48:49.334Z,102491.34
2022-11-26T20:51:50.987Z,102498.47
2022-11-26T20:54:54.024Z,102502.06
2022-11-26T20:57:55.665Z,102499.44
2022-11-26T21:00:57.817Z,102503.03
2022-11-26T21:03:59.452Z,102505.69
2022-11-26T21:07:00.996Z,102505.72
2022-11-26T21:10:02.795Z,102513.72
2022-11-26T21:13:04.448Z,102523.44
2022-11-26T21:16:10.546Z,102527.91
2022-11-26T21:19:12.783Z,102533.25
2022-11-26T21:22:14.331Z,102542.94
2022-11-26T21:25:16.030Z,102546.53
2022-11-26T21:28:20.053Z,102545.75
2022-11-26T21:31:22.780Z,102558.06
2022-11-26T21:34:24.903Z,102558.97
2022-11-26T21:37:27.837Z,102558.09
2022-11-26T21:40:29.892Z,102565.16
2022-11-26T21:43:31.667Z,102561.63
2022-11-26T21:46:38.340Z,102550.16
2022-11-26T21:49:40.867Z,102545.81
2022-11-26T21:52:42.624Z,102540.50
2022-11-26T21:55:44.169Z,102536.09
2022-11-26T21:58:46.296Z,102534.34
2022-11-26T22:01:48.056Z,102534.34
2022-11-26T22:04:49.666Z,102536.94
2022-11-26T22:07:51.679Z,102536.06
2022-11-26T22:10:53.254Z,102544.81
2022-11-26T22:13:55.487Z,102526.25
2022-11-26T22:16:57.095Z,102528.00
2022-11-26T22:19:58.613Z,102520.06
2022-11-26T22:23:00.147Z,102519.13
2022-11-26T22:26:01.733Z,102504.06
2022-11-26T22:29:04.119Z,102497.84
2022-11-26T22:32:05.819Z,102497.84
2022-11-26T22:35:07.751Z,102496.09
2022-11-26T22:38:09.312Z,102494.31
2022-11-26T22:41:13.308Z,102481.97
2022-11-26T22:44:15.908Z,102470.53
2022-11-26T22:47:17.451Z,102458.28
2022-11-26T22:50:19.276Z,102454.75
2022-11-26T22:53:22.108Z,102445.09
2022-11-26T22:56:24.411Z,102450.41
2022-11-26T22:59:27.602Z,102445.09
2022-11-26T23:02:29.384Z,102434.53
2022-11-26T23:05:30.936Z,102431.06
2022-11-26T23:08:32.845Z,102443.41
2022-11-26T23:11:37.787Z,102432.81
2022-11-26T23:14:39.299Z,102427.44
2022-11-26T23:17:40.840Z,102422.00
2022-11-26T23:20:43.399Z,102424.66
2022-11-26T23:23:45.326Z,102434.50
2022-11-26T23:26:47.136Z,102434.69
2022-11-26T23:29:48.728Z,102434.00
2022-11-26T23:32:50.329Z,102432.44
2022-11-26T23:35:51.821Z,102426.56
2022-11-26T23:38:53.811Z,102417.06
2022-11-26T23:41:55.381Z,102413.78
2022-11-26T23:44:56.934Z,102414.75
2022-11-26T23:47:59.648Z,102415.72
2022-11-26T23:51:01.289Z,102415.84
2022-11-26T23:54:02.947Z,102405.38
2022-11-26T23:57:04.459Z,102406.34
